sensor_id;sensor_type;location;lat;lon;timestamp;pressure;altitude;pressure_sealevel;temperature;humidity
7264;BME280;3673;52.480;13.348;2023-04-02T00:02:25;100785.59;;;9.60;52.33
7264;BME280;3673;52.480;13.348;2023-04-02T00:05:36;100788.03;;;9.22;52.82
7264;BME280;3673;52.480;13.348;2023-04-02T00:08:22;100787.09;;;9.07;52.63
7264;BME280;3673;52.480;13.348;2023-04-02T00:10:53;100800.31;;;9.42;52.23
7264;BME280;3673;52.480;13.348;2023-04-02T00:13:28;100802.78;;;9.13;52.55
7264;BME280;3673;52.480;13.348;2023-04-02T00:15:57;100804.56;;;9.20;52.03
7264;BME280;3673;52.480;13.348;2023-04-02T00:18:25;100809.84;;;9.34;51.94
7264;BME280;3673;52.480;13.348;2023-04-02T00:20:59;100808.16;;;9.48;51.58
7264;BME280;3673;52.480;13.348;2023-04-02T00:23:30;100821.16;;;9.34;51.88
7264;BME280;3673;52.480;13.348;2023-04-02T00:25:57;100809.47;;;8.74;52.14
7264;BME280;3673;52.480;13.348;2023-04-02T00:28:24;100817.44;;;8.93;52.44
7264;BME280;3673;52.480;13.348;2023-04-02T00:30:53;100820.16;;;9.12;51.60
7264;BME280;3673;52.480;13.348;2023-04-02T00:33:23;100827.22;;;9.27;51.27
7264;BME280;3673;52.480;13.348;2023-04-02T00:35:54;100824.59;;;9.28;51.61
7264;BME280;3673;52.480;13.348;2023-04-02T00:38:25;100830.72;;;9.30;51.37
7264;BME280;3673;52.480;13.348;2023-04-02T00:40:55;100835.84;;;9.14;51.27
7264;BME280;3673;52.480;13.348;2023-04-02T00:43:24;100833.25;;;9.14;51.30
7264;BME280;3673;52.480;13.348;2023-04-02T00:45:55;100837.63;;;9.19;50.75
7264;BME280;3673;52.480;13.348;2023-04-02T00:48:40;100843.47;;;8.88;51.54
7264;BME280;3673;52.480;13.348;2023-04-02T00:51:18;100848.72;;;8.90;50.99
7264;BME280;3673;52.480;13.348;2023-04-02T00:53:47;100849.84;;;9.28;50.25
7264;BME280;3673;52.480;13.348;2023-04-02T00:56:21;100847.13;;;9.07;50.77
7264;BME280;3673;52.480;13.348;2023-04-02T00:58:53;100851.03;;;8.55;51.92
7264;BME280;3673;52.480;13.348;2023-04-02T01:01:24;100857.47;;;8.96;51.58
7264;BME280;3673;52.480;13.348;2023-04-02T01:03:54;100862.84;;;9.22;50.72
7264;BME280;3673;52.480;13.348;2023-04-02T01:06:30;100855.13;;;9.37;50.56
7264;BME280;3673;52.480;13.348;2023-04-02T01:09:18;100865.41;;;9.13;51.35
7264;BME280;3673;52.480;13.348;2023-04-02T01:12:28;100862.81;;;9.17;50.65
7264;BME280;3673;52.480;13.348;2023-04-02T01:15:10;100879.28;;;9.07;50.93
7264;BME280;3673;52.480;13.348;2023-04-02T01:17:51;100872.44;;;9.20;50.66
7264;BME280;3673;52.480;13.348;2023-04-02T01:21:06;100880.31;;;9.32;50.03
7264;BME280;3673;52.480;13.348;2023-04-02T01:23:51;100876.72;;;9.13;50.30
7264;BME280;3673;52.480;13.348;2023-04-02T01:26:48;100890.53;;;9.02;50.54
7264;BME280;3673;52.480;13.348;2023-04-02T01:29:22;100898.41;;;9.08;50.87
7264;BME280;3673;52.480;13.348;2023-04-02T01:31:50;100901.94;;;9.13;50.22
7264;BME280;3673;52.480;13.348;2023-04-02T01:34:22;100904.41;;;8.95;50.37
7264;BME280;3673;52.480;13.348;2023-04-02T01:37:15;100919.41;;;9.20;50.61
7264;BME280;3673;52.480;13.348;2023-04-02T01:40:04;100917.78;;;9.39;50.07
7264;BME280;3673;52.480;13.348;2023-04-02T01:42:35;100907.78;;;8.80;50.57
7264;BME280;3673;52.480;13.348;2023-04-02T01:45:10;100917.63;;;9.17;50.06
7264;BME280;3673;52.480;13.348;2023-04-02T01:47:38;100921.97;;;9.14;50.40
7264;BME280;3673;52.480;13.348;2023-04-02T01:50:21;100932.00;;;8.68;50.63
7264;BME280;3673;52.480;13.348;2023-04-02T01:52:54;100934.88;;;8.96;50.44
7264;BME280;3673;52.480;13.348;2023-04-02T01:55:32;100940.13;;;9.00;50.58
7264;BME280;3673;52.480;13.348;2023-04-02T01:58:00;100934.97;;;9.06;50.85
7264;BME280;3673;52.480;13.348;2023-04-02T02:00:31;100948.78;;;8.98;50.43
7264;BME280;3673;52.480;13.348;2023-04-02T02:02:59;100952.44;;;9.16;50.45
7264;BME280;3673;52.480;13.348;2023-04-02T02:05:27;100962.84;;;9.15;50.46
7264;BME280;3673;52.480;13.348;2023-04-02T02:07:55;100968.28;;;9.39;50.21
7264;BME280;3673;52.480;13.348;2023-04-02T02:10:26;100962.88;;;9.18;50.31
7264;BME280;3673;52.480;13.348;2023-04-02T02:12:54;100981.84;;;8.97;49.86
7264;BME280;3673;52.480;13.348;2023-04-02T02:15:25;100975.53;;;8.75;49.75
7264;BME280;3673;52.480;13.348;2023-04-02T02:17:58;100975.38;;;8.62;50.01
7264;BME280;3673;52.480;13.348;2023-04-02T02:20:27;100985.94;;;8.74;49.96
7264;BME280;3673;52.480;13.348;2023-04-02T02:22:55;100983.13;;;8.54;50.16
7264;BME280;3673;52.480;13.348;2023-04-02T02:25:25;100994.78;;;8.87;49.46
7264;BME280;3673;52.480;13.348;2023-04-02T02:27:59;101002.91;;;9.17;48.83
7264;BME280;3673;52.480;13.348;2023-04-02T02:30:31;100997.44;;;8.90;49.12
7264;BME280;3673;52.480;13.348;2023-04-02T02:33:05;100997.94;;;8.58;49.38
7264;BME280;3673;52.480;13.348;2023-04-02T02:35:40;101011.34;;;8.92;49.11
7264;BME280;3673;52.480;13.348;2023-04-02T02:38:41;101015.75;;;8.96;49.25
7264;BME280;3673;52.480;13.348;2023-04-02T02:41:18;101019.09;;;8.83;48.99
7264;BME280;3673;52.480;13.348;2023-04-02T02:43:56;101021.38;;;8.55;49.62
7264;BME280;3673;52.480;13.348;2023-04-02T02:46:26;101032.78;;;8.65;49.51
7264;BME280;3673;52.480;13.348;2023-04-02T02:48:56;101027.66;;;8.69;49.09
7264;BME280;3673;52.480;13.348;2023-04-02T02:51:29;101028.06;;;8.31;49.59
7264;BME280;3673;52.480;13.348;2023-04-02T02:54:04;101036.31;;;8.67;48.75
7264;BME280;3673;52.480;13.348;2023-04-02T02:56:35;101034.22;;;8.39;48.79
7264;BME280;3673;52.480;13.348;2023-04-02T02:59:06;101042.50;;;8.78;48.20
7264;BME280;3673;52.480;13.348;2023-04-02T03:01:36;101055.84;;;9.04;47.72
7264;BME280;3673;52.480;13.348;2023-04-02T03:04:04;101056.47;;;8.80;48.06
7264;BME280;3673;52.480;13.348;2023-04-02T03:06:31;101057.44;;;8.90;48.36
7264;BME280;3673;52.480;13.348;2023-04-02T03:09:03;101063.72;;;9.08;48.25
7264;BME280;3673;52.480;13.348;2023-04-02T03:11:41;101067.97;;;8.99;48.49
7264;BME280;3673;52.480;13.348;2023-04-02T03:14:19;101076.38;;;8.75;48.60
7264;BME280;3673;52.480;13.348;2023-04-02T03:16:51;101078.91;;;8.67;48.35
7264;BME280;3673;52.480;13.348;2023-04-02T03:19:29;101080.41;;;8.47;49.43
7264;BME280;3673;52.480;13.348;2023-04-02T03:22:05;101069.88;;;8.40;49.40
7264;BME280;3673;52.480;13.348;2023-04-02T03:24:37;101090.13;;;8.60;49.24
7264;BME280;3673;52.480;13.348;2023-04-02T03:27:12;101088.72;;;8.87;49.00
7264;BME280;3673;52.480;13.348;2023-04-02T03:29:45;101103.19;;;8.60;48.92
7264;BME280;3673;52.480;13.348;2023-04-02T03:32:21;101110.88;;;8.54;49.37
7264;BME280;3673;52.480;13.348;2023-04-02T03:34:53;101107.66;;;8.72;48.99
7264;BME280;3673;52.480;13.348;2023-04-02T03:37:24;101122.91;;;9.12;49.04
7264;BME280;3673;52.480;13.348;2023-04-02T03:39:55;101113.25;;;9.05;49.06
7264;BME280;3673;52.480;13.348;2023-04-02T03:42:25;101122.94;;;9.14;48.85
7264;BME280;3673;52.480;13.348;2023-04-02T03:44:56;101126.19;;;8.95;49.13
7264;BME280;3673;52.480;13.348;2023-04-02T03:47:30;101130.63;;;9.02;48.55
7264;BME280;3673;52.480;13.348;2023-04-02T03:50:04;101125.22;;;8.87;48.91
7264;BME280;3673;52.480;13.348;2023-04-02T03:52:34;101140.31;;;9.10;48.16
7264;BME280;3673;52.480;13.348;2023-04-02T03:55:10;101142.75;;;8.97;49.05
7264;BME280;3673;52.480;13.348;2023-04-02T03:57:45;101135.78;;;8.96;49.11
7264;BME280;3673;52.480;13.348;2023-04-02T04:00:17;101152.91;;;8.75;48.26
7264;BME280;3673;52.480;13.348;2023-04-02T04:02:50;101151.28;;;8.85;48.68
7264;BME280;3673;52.480;13.348;2023-04-02T04:05:25;101153.94;;;8.88;48.59
7264;BME280;3673;52.480;13.348;2023-04-02T04:07:58;101160.66;;;8.71;49.27
7264;BME280;3673;52.480;13.348;2023-04-02T04:10:27;101159.22;;;8.94;48.61
7264;BME280;3673;52.480;13.348;2023-04-02T04:13:00;101168.19;;;9.16;48.66
7264;BME280;3673;52.480;13.348;2023-04-02T04:15:33;101174.06;;;8.97;48.41
7264;BME280;3673;52.480;13.348;2023-04-02T04:18:08;101187.25;;;9.09;48.29
7264;BME280;3673;52.480;13.348;2023-04-02T04:20:46;101181.25;;;9.16;48.24
7264;BME280;3673;52.480;13.348;2023-04-02T04:23:18;101188.47;;;9.37;47.34
7264;BME280;3673;52.480;13.348;2023-04-02T04:25:57;101193.66;;;9.34;47.97
7264;BME280;3673;52.480;13.348;2023-04-02T04:28:31;101204.13;;;9.38;47.68
7264;BME280;3673;52.480;13.348;2023-04-02T04:31:12;101199.94;;;9.52;47.42
7264;BME280;3673;52.480;13.348;2023-04-02T04:33:45;101207.28;;;9.10;48.02
7264;BME280;3673;52.480;13.348;2023-04-02T04:36:21;101212.13;;;8.84;48.38
7264;BME280;3673;52.480;13.348;2023-04-02T04:38:54;101218.63;;;9.13;48.35
7264;BME280;3673;52.480;13.348;2023-04-02T04:41:27;101231.72;;;9.16;48.59
7264;BME280;3673;52.480;13.348;2023-04-02T04:44:01;101234.38;;;9.19;48.65
7264;BME280;3673;52.480;13.348;2023-04-02T04:46:33;101233.50;;;9.19;48.28
7264;BME280;3673;52.480;13.348;2023-04-02T04:49:08;101235.97;;;9.07;48.48
7264;BME280;3673;52.480;13.348;2023-04-02T04:51:44;101239.31;;;8.97;48.80
7264;BME280;3673;52.480;13.348;2023-04-02T04:54:13;101251.63;;;9.07;48.74
7264;BME280;3673;52.480;13.348;2023-04-02T04:56:44;101249.03;;;9.11;48.62
7264;BME280;3673;52.480;13.348;2023-04-02T04:59:17;101255.28;;;9.22;48.18
7264;BME280;3673;52.480;13.348;2023-04-02T05:01:52;101252.56;;;9.15;48.38
7264;BME280;3673;52.480;13.348;2023-04-02T05:04:23;101258.09;;;8.73;49.31
7264;BME280;3673;52.480;13.348;2023-04-02T05:06:56;101282.53;;;8.79;48.97
7264;BME280;3673;52.480;13.348;2023-04-02T05:09:29;101274.28;;;9.11;48.68
7264;BME280;3673;52.480;13.348;2023-04-02T05:12:06;101276.09;;;9.18;48.53
7264;BME280;3673;52.480;13.348;2023-04-02T05:14:44;101285.47;;;9.02;49.03
7264;BME280;3673;52.480;13.348;2023-04-02T05:17:19;101293.69;;;9.31;48.19
7264;BME280;3673;52.480;13.348;2023-04-02T05:19:51;101281.47;;;9.27;48.49
7264;BME280;3673;52.480;13.348;2023-04-02T05:22:29;101295.34;;;9.24;48.53
7264;BME280;3673;52.480;13.348;2023-04-02T05:25:14;101310.47;;;9.50;48.45
7264;BME280;3673;52.480;13.348;2023-04-02T05:27:47;101313.81;;;9.38;48.94
7264;BME280;3673;52.480;13.348;2023-04-02T05:30:46;101312.88;;;9.35;48.40
7264;BME280;3673;52.480;13.348;2023-04-02T05:33:21;101318.22;;;9.41;48.72
7264;BME280;3673;52.480;13.348;2023-04-02T05:35:56;101318.00;;;9.25;48.47
7264;BME280;3673;52.480;13.348;2023-04-02T05:38:28;101332.81;;;9.28;48.03
7264;BME280;3673;52.480;13.348;2023-04-02T05:41:01;101335.59;;;9.42;48.02
7264;BME280;3673;52.480;13.348;2023-04-02T05:43:32;101335.63;;;9.43;48.25
7264;BME280;3673;52.480;13.348;2023-04-02T05:46:06;101335.69;;;9.48;48.33
7264;BME280;3673;52.480;13.348;2023-04-02T05:48:40;101335.34;;;9.22;48.15
7264;BME280;3673;52.480;13.348;2023-04-02T05:51:15;101343.44;;;9.40;48.23
7264;BME280;3673;52.480;13.348;2023-04-02T05:53:48;101349.47;;;9.38;47.56
7264;BME280;3673;52.480;13.348;2023-04-02T05:56:22;101353.81;;;9.36;47.86
7264;BME280;3673;52.480;13.348;2023-04-02T05:58:54;101363.41;;;9.37;47.75
7264;BME280;3673;52.480;13.348;2023-04-02T06:01:35;101363.53;;;9.46;47.17
7264;BME280;3673;52.480;13.348;2023-04-02T06:04:12;101364.28;;;9.37;47.32
7264;BME280;3673;52.480;13.348;2023-04-02T06:06:52;101367.22;;;9.01;48.31
7264;BME280;3673;52.480;13.348;2023-04-02T06:09:32;101375.34;;;9.19;48.52
7264;BME280;3673;52.480;13.348;2023-04-02T06:12:12;101375.94;;;9.60;47.86
7264;BME280;3673;52.480;13.348;2023-04-02T06:14:42;101381.91;;;9.55;47.23
7264;BME280;3673;52.480;13.348;2023-04-02T06:17:12;101385.41;;;9.54;47.56
7264;BME280;3673;52.480;13.348;2023-04-02T06:19:40;101390.22;;;9.25;47.29
7264;BME280;3673;52.480;13.348;2023-04-02T06:22:16;101396.41;;;9.31;46.57
7264;BME280;3673;52.480;13.348;2023-04-02T06:24:49;101401.44;;;9.19;46.46
7264;BME280;3673;52.480;13.348;2023-04-02T06:27:19;101403.63;;;9.49;46.35
7264;BME280;3673;52.480;13.348;2023-04-02T06:29:49;101414.75;;;9.38;45.53
7264;BME280;3673;52.480;13.348;2023-04-02T06:32:22;101414.06;;;9.49;45.08
7264;BME280;3673;52.480;13.348;2023-04-02T06:34:50;101422.22;;;9.70;44.86
7264;BME280;3673;52.480;13.348;2023-04-02T06:37:23;101424.97;;;9.82;44.97
7264;BME280;3673;52.480;13.348;2023-04-02T06:39:53;101433.25;;;9.50;45.45
7264;BME280;3673;52.480;13.348;2023-04-02T06:42:24;101439.84;;;9.28;46.45
7264;BME280;3673;52.480;13.348;2023-04-02T06:44:51;101438.38;;;9.45;45.27
7264;BME280;3673;52.480;13.348;2023-04-02T06:47:27;101434.09;;;9.49;46.40
7264;BME280;3673;52.480;13.348;2023-04-02T06:50:02;101427.78;;;9.96;46.95
7264;BME280;3673;52.480;13.348;2023-04-02T06:52:35;101442.47;;;9.87;45.69
7264;BME280;3673;52.480;13.348;2023-04-02T06:55:25;101448.84;;;10.10;44.89
7264;BME280;3673;52.480;13.348;2023-04-02T06:57:52;101448.38;;;10.40;44.58
7264;BME280;3673;52.480;13.348;2023-04-02T07:00:25;101449.72;;;10.89;45.06
7264;BME280;3673;52.480;13.348;2023-04-02T07:02:54;101455.59;;;10.65;44.71
7264;BME280;3673;52.480;13.348;2023-04-02T07:05:21;101457.69;;;10.99;43.80
7264;BME280;3673;52.480;13.348;2023-04-02T07:07:48;101458.41;;;10.84;44.04
7264;BME280;3673;52.480;13.348;2023-04-02T07:10:16;101455.44;;;10.47;43.17
7264;BME280;3673;52.480;13.348;2023-04-02T07:12:44;101460.66;;;10.48;43.09
7264;BME280;3673;52.480;13.348;2023-04-02T07:15:15;101461.63;;;10.56;43.24
7264;BME280;3673;52.480;13.348;2023-04-02T07:17:44;101465.00;;;10.46;42.40
7264;BME280;3673;52.480;13.348;2023-04-02T07:20:25;101465.88;;;10.48;41.58
7264;BME280;3673;52.480;13.348;2023-04-02T07:22:53;101466.25;;;10.80;41.10
7264;BME280;3673;52.480;13.348;2023-04-02T07:25:22;101474.06;;;10.78;40.33
7264;BME280;3673;52.480;13.348;2023-04-02T07:27:50;101477.09;;;10.38;41.55
7264;BME280;3673;52.480;13.348;2023-04-02T07:30:17;101476.97;;;10.27;42.12
7264;BME280;3673;52.480;13.348;2023-04-02T07:32:44;101485.94;;;10.48;42.58
7264;BME280;3673;52.480;13.348;2023-04-02T07:35:11;101484.59;;;10.83;42.60
7264;BME280;3673;52.480;13.348;2023-04-02T07:37:38;101492.47;;;10.86;41.57
7264;BME280;3673;52.480;13.348;2023-04-02T07:40:10;101496.63;;;10.66;41.77
7264;BME280;3673;52.480;13.348;2023-04-02T07:42:42;101493.00;;;10.55;41.60
7264;BME280;3673;52.480;13.348;2023-04-02T07:45:10;101509.16;;;10.99;41.63
7264;BME280;3673;52.480;13.348;2023-04-02T07:47:36;101510.09;;;11.01;41.61
7264;BME280;3673;52.480;13.348;2023-04-02T07:50:04;101513.47;;;10.92;40.86
7264;BME280;3673;52.480;13.348;2023-04-02T07:52:32;101513.22;;;10.71;40.50
7264;BME280;3673;52.480;13.348;2023-04-02T07:54:59;101512.56;;;10.87;40.50
7264;BME280;3673;52.480;13.348;2023-04-02T07:57:27;101524.72;;;10.85;40.52
7264;BME280;3673;52.480;13.348;2023-04-02T07:59:55;101528.56;;;11.17;40.96
7264;BME280;3673;52.480;13.348;2023-04-02T08:02:22;101541.31;;;10.84;40.71
7264;BME280;3673;52.480;13.348;2023-04-02T08:04:50;101536.13;;;10.89;41.03
7264;BME280;3673;52.480;13.348;2023-04-02T08:07:17;101547.19;;;10.65;41.89
7264;BME280;3673;52.480;13.348;2023-04-02T08:09:44;101560.94;;;10.49;41.57
7264;BME280;3673;52.480;13.348;2023-04-02T08:12:12;101555.66;;;10.43;41.16
7264;BME280;3673;52.480;13.348;2023-04-02T08:14:39;101561.75;;;10.43;41.57
7264;BME280;3673;52.480;13.348;2023-04-02T08:17:07;101566.03;;;10.37;41.85
7264;BME280;3673;52.480;13.348;2023-04-02T08:19:34;101576.91;;;10.68;41.58
7264;BME280;3673;52.480;13.348;2023-04-02T08:22:01;101566.22;;;9.90;42.11
7264;BME280;3673;52.480;13.348;2023-04-02T08:24:28;101573.34;;;10.00;42.44
7264;BME280;3673;52.480;13.348;2023-04-02T08:26:55;101566.38;;;10.02;41.97
7264;BME280;3673;52.480;13.348;2023-04-02T08:29:22;101578.22;;;10.38;41.32
7264;BME280;3673;52.480;13.348;2023-04-02T08:31:49;101579.84;;;10.28;41.04
7264;BME280;3673;52.480;13.348;2023-04-02T08:34:17;101587.03;;;10.44;40.72
7264;BME280;3673;52.480;13.348;2023-04-02T08:36:44;101585.53;;;10.61;40.87
7264;BME280;3673;52.480;13.348;2023-04-02T08:39:11;101596.72;;;10.51;40.48
7264;BME280;3673;52.480;13.348;2023-04-02T08:41:44;101592.66;;;10.74;40.72
7264;BME280;3673;52.480;13.348;2023-04-02T08:44:25;101599.50;;;10.62;40.63
7264;BME280;3673;52.480;13.348;2023-04-02T08:47:01;101606.97;;;11.01;40.21
7264;BME280;3673;52.480;13.348;2023-04-02T08:49:36;101602.13;;;10.65;40.46
7264;BME280;3673;52.480;13.348;2023-04-02T08:52:04;101614.88;;;11.08;40.43
7264;BME280;3673;52.480;13.348;2023-04-02T08:54:33;101608.84;;;11.14;39.87
7264;BME280;3673;52.480;13.348;2023-04-02T08:57:06;101622.03;;;11.23;39.54
7264;BME280;3673;52.480;13.348;2023-04-02T08:59:40;101618.44;;;11.13;39.89
7264;BME280;3673;52.480;13.348;2023-04-02T09:02:26;101632.34;;;11.11;40.01
7264;BME280;3673;52.480;13.348;2023-04-02T09:04:58;101638.09;;;10.79;40.59
7264;BME280;3673;52.480;13.348;2023-04-02T09:07:27;101635.97;;;10.51;40.52
7264;BME280;3673;52.480;13.348;2023-04-02T09:09:55;101639.16;;;10.94;40.17
7264;BME280;3673;52.480;13.348;2023-04-02T09:12:26;101643.38;;;10.82;40.62
7264;BME280;3673;52.480;13.348;2023-04-02T09:15:05;101644.75;;;11.25;39.76
7264;BME280;3673;52.480;13.348;2023-04-02T09:17:38;101647.06;;;10.98;40.52
7264;BME280;3673;52.480;13.348;2023-04-02T09:20:15;101637.88;;;11.33;40.34
7264;BME280;3673;52.480;13.348;2023-04-02T09:22:43;101650.06;;;11.34;40.38
7264;BME280;3673;52.480;13.348;2023-04-02T09:25:16;101646.56;;;11.32;39.55
7264;BME280;3673;52.480;13.348;2023-04-02T09:27:46;101649.66;;;10.98;39.90
7264;BME280;3673;52.480;13.348;2023-04-02T09:30:26;101651.66;;;10.51;40.05
7264;BME280;3673;52.480;13.348;2023-04-02T09:32:59;101659.97;;;10.84;40.20
7264;BME280;3673;52.480;13.348;2023-04-02T09:35:30;101655.31;;;11.33;39.63
7264;BME280;3673;52.480;13.348;2023-04-02T09:38:16;101670.22;;;11.38;39.40
7264;BME280;3673;52.480;13.348;2023-04-02T09:40:48;101672.06;;;11.49;39.11
7264;BME280;3673;52.480;13.348;2023-04-02T09:43:18;101673.38;;;11.92;37.94
7264;BME280;3673;52.480;13.348;2023-04-02T09:45:56;101682.47;;;12.33;37.22
7264;BME280;3673;52.480;13.348;2023-04-02T09:48:26;101681.81;;;12.72;36.48
7264;BME280;3673;52.480;13.348;2023-04-02T09:51:14;101686.25;;;12.85;35.58
7264;BME280;3673;52.480;13.348;2023-04-02T09:53:43;101691.72;;;13.29;34.85
7264;BME280;3673;52.480;13.348;2023-04-02T09:56:19;101684.81;;;13.69;34.41
7264;BME280;3673;52.480;13.348;2023-04-02T09:59:03;101684.88;;;13.98;33.68
7264;BME280;3673;52.480;13.348;2023-04-02T10:01:32;101688.34;;;14.34;32.43
7264;BME280;3673;52.480;13.348;2023-04-02T10:04:03;101706.75;;;14.69;31.64
7264;BME280;3673;52.480;13.348;2023-04-02T10:06:33;101695.38;;;14.29;31.39
7264;BME280;3673;52.480;13.348;2023-04-02T10:09:24;101714.69;;;14.53;31.41
7264;BME280;3673;52.480;13.348;2023-04-02T10:11:55;101712.88;;;14.71;31.43
7264;BME280;3673;52.480;13.348;2023-04-02T10:14:27;101703.16;;;15.01;31.03
7264;BME280;3673;52.480;13.348;2023-04-02T10:16:57;101702.09;;;15.41;30.19
7264;BME280;3673;52.480;13.348;2023-04-02T10:19:31;101714.63;;;14.78;30.72
7264;BME280;3673;52.480;13.348;2023-04-02T10:22:04;101721.63;;;14.82;30.96
7264;BME280;3673;52.480;13.348;2023-04-02T10:24:34;101727.72;;;14.98;30.71
7264;BME280;3673;52.480;13.348;2023-04-02T10:27:13;101724.94;;;15.34;30.50
7264;BME280;3673;52.480;13.348;2023-04-02T10:29:56;101719.63;;;15.53;30.16
7264;BME280;3673;52.480;13.348;2023-04-02T10:32:32;101728.34;;;15.65;30.51
7264;BME280;3673;52.480;13.348;2023-04-02T10:35:07;101718.63;;;15.72;30.44
7264;BME280;3673;52.480;13.348;2023-04-02T10:41:04;101745.22;;;15.22;30.66
7264;BME280;3673;52.480;13.348;2023-04-02T10:44:13;101743.63;;;14.04;32.60
7264;BME280;3673;52.480;13.348;2023-04-02T10:46:47;101748.88;;;14.06;32.99
7264;BME280;3673;52.480;13.348;2023-04-02T10:49:26;101740.91;;;13.62;33.71
7264;BME280;3673;52.480;13.348;2023-04-02T10:52:00;101753.09;;;13.37;34.31
7264;BME280;3673;52.480;13.348;2023-04-02T10:54:40;101747.72;;;13.14;33.97
7264;BME280;3673;52.480;13.348;2023-04-02T10:57:21;101761.69;;;13.04;34.02
7264;BME280;3673;52.480;13.348;2023-04-02T10:59:56;101758.88;;;12.77;34.66
7264;BME280;3673;52.480;13.348;2023-04-02T11:02:33;101758.91;;;12.81;34.81
7264;BME280;3673;52.480;13.348;2023-04-02T11:05:11;101747.13;;;14.09;32.90
7264;BME280;3673;52.480;13.348;2023-04-02T11:07:52;101763.78;;;14.19;32.29
7264;BME280;3673;52.480;13.348;2023-04-02T11:10:20;101766.47;;;14.49;32.70
7264;BME280;3673;52.480;13.348;2023-04-02T11:12:55;101758.56;;;14.46;32.21
7264;BME280;3673;52.480;13.348;2023-04-02T11:15:23;101768.13;;;15.11;31.92
7264;BME280;3673;52.480;13.348;2023-04-02T11:17:50;101776.97;;;14.87;32.08
7264;BME280;3673;52.480;13.348;2023-04-02T11:20:54;101777.88;;;14.59;32.86
7264;BME280;3673;52.480;13.348;2023-04-02T11:23:30;101776.13;;;14.50;32.96
7264;BME280;3673;52.480;13.348;2023-04-02T11:26:36;101794.56;;;14.42;33.24
7264;BME280;3673;52.480;13.348;2023-04-02T11:29:20;101805.84;;;13.94;33.73
7264;BME280;3673;52.480;13.348;2023-04-02T11:31:50;101805.78;;;13.63;34.27
7264;BME280;3673;52.480;13.348;2023-04-02T11:35:36;101810.78;;;13.10;34.78
7264;BME280;3673;52.480;13.348;2023-04-02T11:38:46;101807.00;;;12.73;34.93
7264;BME280;3673;52.480;13.348;2023-04-02T11:41:13;101815.63;;;12.61;35.23
7264;BME280;3673;52.480;13.348;2023-04-02T11:44:02;101819.03;;;12.47;35.16
7264;BME280;3673;52.480;13.348;2023-04-02T11:46:44;101820.44;;;13.18;34.81
7264;BME280;3673;52.480;13.348;2023-04-02T11:49:55;101807.75;;;14.61;32.90
7264;BME280;3673;52.480;13.348;2023-04-02T11:52:26;101817.03;;;15.90;30.36
7264;BME280;3673;52.480;13.348;2023-04-02T11:55:01;101822.78;;;16.48;29.64
7264;BME280;3673;52.480;13.348;2023-04-02T11:58:00;101820.63;;;16.99;28.42
7264;BME280;3673;52.480;13.348;2023-04-02T12:03:47;101819.03;;;17.62;27.27
7264;BME280;3673;52.480;13.348;2023-04-02T12:06:26;101831.06;;;17.14;27.67
7264;BME280;3673;52.480;13.348;2023-04-02T12:09:08;101828.78;;;16.76;28.63
7264;BME280;3673;52.480;13.348;2023-04-02T12:11:43;101831.19;;;15.73;30.00
7264;BME280;3673;52.480;13.348;2023-04-02T12:14:36;101837.44;;;15.52;30.37
7264;BME280;3673;52.480;13.348;2023-04-02T12:17:19;101834.91;;;15.10;31.04
7264;BME280;3673;52.480;13.348;2023-04-02T12:19:48;101836.69;;;14.91;31.16
7264;BME280;3673;52.480;13.348;2023-04-02T12:22:21;101834.06;;;14.74;32.25
7264;BME280;3673;52.480;13.348;2023-04-02T12:24:48;101848.09;;;14.37;32.41
7264;BME280;3673;52.480;13.348;2023-04-02T12:27:18;101852.31;;;13.91;33.22
7264;BME280;3673;52.480;13.348;2023-04-02T12:29:48;101850.66;;;14.13;32.96
7264;BME280;3673;52.480;13.348;2023-04-02T12:32:23;101848.84;;;13.93;33.30
7264;BME280;3673;52.480;13.348;2023-04-02T12:34:51;101845.28;;;13.85;32.93
7264;BME280;3673;52.480;13.348;2023-04-02T12:37:22;101853.31;;;14.26;32.72
7264;BME280;3673;52.480;13.348;2023-04-02T12:39:55;101847.06;;;13.91;32.61
7264;BME280;3673;52.480;13.348;2023-04-02T12:42:31;101860.28;;;14.03;32.60
7264;BME280;3673;52.480;13.348;2023-04-02T12:44:59;101862.09;;;14.21;32.26
7264;BME280;3673;52.480;13.348;2023-04-02T12:47:28;101862.19;;;14.71;31.55
7264;BME280;3673;52.480;13.348;2023-04-02T12:49:56;101859.50;;;14.62;31.38
7264;BME280;3673;52.480;13.348;2023-04-02T12:52:26;101862.13;;;14.92;30.59
7264;BME280;3673;52.480;13.348;2023-04-02T12:54:55;101862.09;;;15.33;30.10
7264;BME280;3673;52.480;13.348;2023-04-02T12:57:39;101869.09;;;15.38;30.15
7264;BME280;3673;52.480;13.348;2023-04-02T13:00:32;101862.16;;;14.80;31.00
7264;BME280;3673;52.480;13.348;2023-04-02T13:03:20;101875.25;;;14.31;30.65
7264;BME280;3673;52.480;13.348;2023-04-02T13:05:52;101876.16;;;14.38;31.13
7264;BME280;3673;52.480;13.348;2023-04-02T13:08:24;101869.19;;;14.85;31.05
7264;BME280;3673;52.480;13.348;2023-04-02T13:10:55;101849.28;;;16.39;28.37
7264;BME280;3673;52.480;13.348;2023-04-02T13:13:28;101856.66;;;17.09;27.54
7264;BME280;3673;52.480;13.348;2023-04-02T13:16:23;101859.53;;;17.69;26.57
7264;BME280;3673;52.480;13.348;2023-04-02T13:19:20;101857.84;;;17.62;26.52
7264;BME280;3673;52.480;13.348;2023-04-02T13:21:47;101866.72;;;17.59;26.89
7264;BME280;3673;52.480;13.348;2023-04-02T13:24:18;101878.13;;;16.74;27.85
7264;BME280;3673;52.480;13.348;2023-04-02T13:26:46;101868.22;;;15.42;29.77
7264;BME280;3673;52.480;13.348;2023-04-02T13:29:23;101875.25;;;15.31;30.25
7264;BME280;3673;52.480;13.348;2023-04-02T13:31:52;101881.44;;;14.42;30.63
7264;BME280;3673;52.480;13.348;2023-04-02T13:34:20;101875.34;;;14.54;30.59
7264;BME280;3673;52.480;13.348;2023-04-02T13:36:48;101882.34;;;14.57;30.65
7264;BME280;3673;52.480;13.348;2023-04-02T13:39:15;101881.34;;;14.24;30.19
7264;BME280;3673;52.480;13.348;2023-04-02T13:41:44;101871.81;;;14.72;29.94
7264;BME280;3673;52.480;13.348;2023-04-02T13:44:22;101874.44;;;14.88;29.55
7264;BME280;3673;52.480;13.348;2023-04-02T13:46:51;101874.69;;;16.62;26.38
7264;BME280;3673;52.480;13.348;2023-04-02T13:49:19;101876.28;;;18.35;25.00
7264;BME280;3673;52.480;13.348;2023-04-02T13:51:49;101875.50;;;17.63;25.60